Time;durP1;ratioP1;P1;durP2;ratioP2;P2;SDS_P1;SDS_P2;PMS_P1;PMS_P2;Temp;Humidity;BMP_temperature;BMP_pressure;BME280_temperature;BME280_humidity;BME280_pressure;Samples;Min_cycle;Max_cycle;Signal;HPM_P1;HPM_P2
2023/07/11 00:01:21;;;;;;;0.20;0.20;;;18.50;98.60;;;;;;5040348;28;20497;-84
2023/07/11 00:03:47;;;;;;;0.20;0.20;;;18.50;98.60;;;;;;5044683;28;20078;-84
2023/07/11 00:06:16;;;;;;;0.10;0.10;;;18.50;98.70;;;;;;5041118;28;20036;-84
2023/07/11 00:08:41;;;;;;;0.20;0.20;;;18.50;98.70;;;;;;5042147;28;20123;-83
2023/07/11 00:11:09;;;;;;;0.20;0.20;;;18.50;98.70;;;;;;5046531;28;20140;-83
2023/07/11 00:13:36;;;;;;;0.20;0.20;;;18.50;98.90;;;;;;5046827;28;20090;-84
2023/07/11 00:16:05;;;;;;;0.20;0.20;;;18.50;98.90;;;;;;5046110;28;20458;-83
2023/07/11 00:18:31;;;;;;;0.10;0.10;;;18.50;99.00;;;;;;5041397;28;20064;-83
2023/07/11 00:20:57;;;;;;;0.10;0.10;;;18.40;99.10;;;;;;5051843;28;20044;-84
2023/07/11 00:23:24;;;;;;;0.13;0.13;;;18.50;99.10;;;;;;5045959;28;20404;-83
2023/07/11 00:25:50;;;;;;;0.20;0.20;;;18.40;99.00;;;;;;5038167;28;20037;-83
2023/07/11 00:28:16;;;;;;;0.10;0.10;;;18.40;99.10;;;;;;5043882;28;20048;-84
2023/07/11 00:30:41;;;;;;;0.20;0.20;;;18.40;99.10;;;;;;5044419;28;20086;-83
2023/07/11 00:33:11;;;;;;;0.10;0.10;;;18.50;99.30;;;;;;5042654;28;20440;-83
2023/07/11 00:35:37;;;;;;;0.10;0.10;;;18.40;99.20;;;;;;5044434;28;20037;-84
2023/07/11 00:38:04;;;;;;;0.20;0.20;;;18.40;99.20;;;;;;5046570;28;20055;-84
2023/07/11 00:40:30;;;;;;;0.17;0.17;;;18.40;99.30;;;;;;5025059;28;20049;-84
2023/07/11 00:43:00;;;;;;;0.20;0.20;;;18.40;99.30;;;;;;5045290;28;20045;-84
2023/07/11 00:45:54;;;;;;;0.20;0.20;;;18.40;99.40;;;;;;5044953;28;20052;-84
2023/07/11 00:48:22;;;;;;;0.20;0.20;;;18.40;99.50;;;;;;5042289;28;20412;-84
2023/07/11 00:50:49;;;;;;;0.20;0.20;;;18.30;99.60;;;;;;5028310;28;20033;-83
2023/07/11 00:53:15;;;;;;;0.20;0.20;;;18.30;99.60;;;;;;5029872;28;20060;-84
2023/07/11 00:55:43;;;;;;;0.13;0.13;;;18.30;99.70;;;;;;5049841;28;20151;-84
2023/07/11 00:58:09;;;;;;;0.20;0.20;;;18.30;99.90;;;;;;5052191;28;20049;-84
2023/07/11 01:00:35;;;;;;;0.10;0.10;;;18.30;99.90;;;;;;5025981;28;20049;-83
2023/07/11 01:03:01;;;;;;;0.13;0.13;;;18.30;99.90;;;;;;5044977;28;20103;-84
2023/07/11 01:05:26;;;;;;;0.20;0.20;;;18.30;99.90;;;;;;5039566;28;20033;-84
2023/07/11 01:07:52;;;;;;;0.10;0.10;;;18.30;99.90;;;;;;5047256;28;20036;-84
2023/07/11 01:10:18;;;;;;;0.20;0.20;;;18.20;99.90;;;;;;5025349;28;20060;-84
2023/07/11 01:12:46;;;;;;;0.20;0.20;;;18.30;99.90;;;;;;5045225;28;20488;-84
2023/07/11 01:15:12;;;;;;;0.20;0.20;;;18.30;99.90;;;;;;5025928;28;20049;-85
2023/07/11 01:17:37;;;;;;;0.20;0.20;;;18.20;99.90;;;;;;5025837;28;20473;-84
2023/07/11 01:20:07;;;;;;;0.15;0.15;;;18.30;99.90;;;;;;5029002;28;20086;-84
2023/07/11 01:22:35;;;;;;;0.20;0.20;;;18.20;99.90;;;;;;5042515;28;20033;-84
2023/07/11 01:25:09;;;;;;;0.20;0.20;;;18.20;99.90;;;;;;5025868;28;20127;-84
2023/07/11 01:27:36;;;;;;;0.20;0.20;;;18.20;99.90;;;;;;5045324;28;20395;-84
2023/07/11 01:30:04;;;;;;;0.20;0.20;;;18.20;99.90;;;;;;5027657;28;20036;-85
2023/07/11 01:32:30;;;;;;;0.20;0.20;;;18.20;99.90;;;;;;5041207;28;20052;-84
2023/07/11 01:34:57;;;;;;;0.20;0.20;;;18.20;99.90;;;;;;5053675;28;20366;-85
2023/07/11 01:37:22;;;;;;;0.13;0.13;;;18.20;99.90;;;;;;5045297;28;20045;-84
2023/07/11 01:39:48;;;;;;;0.10;0.10;;;18.20;99.90;;;;;;5046872;28;20086;-84
2023/07/11 01:42:14;;;;;;;0.10;0.10;;;18.20;99.90;;;;;;5039441;28;20049;-84
2023/07/11 01:44:39;;;;;;;0.15;0.15;;;18.20;99.90;;;;;;5049196;28;20052;-83
2023/07/11 01:47:07;;;;;;;0.20;0.20;;;18.20;99.90;;;;;;5043879;28;20072;-84
2023/07/11 01:49:33;;;;;;;0.20;0.20;;;18.20;99.90;;;;;;5044057;28;20807;-84
2023/07/11 01:52:17;;;;;;;0.10;0.10;;;18.20;99.90;;;;;;5047653;28;20036;-84
2023/07/11 01:54:43;;;;;;;0.20;0.20;;;18.20;99.90;;;;;;5047256;28;20048;-84
2023/07/11 01:57:09;;;;;;;0.20;0.20;;;18.30;99.90;;;;;;5045187;28;20115;-84
2023/07/11 01:59:36;;;;;;;0.10;0.10;;;18.30;99.90;;;;;;5047148;28;20467;-84
2023/07/11 02:02:02;;;;;;;0.20;0.20;;;18.30;99.90;;;;;;5045127;28;20124;-84
2023/07/11 02:04:28;;;;;;;0.20;0.20;;;18.30;99.90;;;;;;5045889;28;20052;-84
2023/07/11 02:06:53;;;;;;;0.10;0.10;;;18.30;99.90;;;;;;5048433;28;20049;-84
2023/07/11 02:09:20;;;;;;;0.10;0.10;;;18.40;99.90;;;;;;5047888;28;20045;-84
2023/07/11 02:11:47;;;;;;;0.10;0.10;;;18.30;99.90;;;;;;5053418;28;20111;-85
2023/07/11 02:14:15;;;;;;;0.20;0.20;;;18.30;99.90;;;;;;5044530;28;20052;-83
2023/07/11 02:16:44;;;;;;;0.17;0.17;;;18.30;99.90;;;;;;5048181;28;20045;-85
2023/07/11 02:19:14;;;;;;;0.17;0.17;;;18.40;99.90;;;;;;5044198;28;20053;-83
2023/07/11 02:21:40;;;;;;;0.20;0.20;;;18.30;99.90;;;;;;5048715;28;20037;-83
2023/07/11 02:24:08;;;;;;;0.13;0.13;;;18.40;99.90;;;;;;5043875;28;20045;-83
2023/07/11 02:26:34;;;;;;;0.20;0.20;;;18.30;99.90;;;;;;5048572;28;20488;-84
2023/07/11 02:29:00;;;;;;;0.20;0.20;;;18.30;99.90;;;;;;5047018;28;20048;-83
2023/07/11 02:31:26;;;;;;;0.20;0.20;;;18.30;99.90;;;;;;5043703;28;20061;-84
2023/07/11 02:33:53;;;;;;;0.20;0.20;;;18.30;99.90;;;;;;5046202;28;20049;-84
2023/07/11 02:36:19;;;;;;;0.10;0.10;;;18.30;99.90;;;;;;5049072;28;20045;-84
2023/07/11 02:38:45;;;;;;;0.20;0.20;;;18.30;99.90;;;;;;5045870;28;20049;-83
2023/07/11 02:41:11;;;;;;;0.20;0.20;;;18.30;99.90;;;;;;5049167;28;20037;-84
2023/07/11 02:43:36;;;;;;;0.17;0.17;;;18.30;99.90;;;;;;5044088;28;20045;-84
2023/07/11 02:46:02;;;;;;;0.10;0.10;;;18.30;99.90;;;;;;5049947;28;20116;-83
2023/07/11 02:48:29;;;;;;;0.20;0.20;;;18.30;99.90;;;;;;5050498;28;20426;-83
2023/07/11 02:50:54;;;;;;;0.20;0.20;;;18.30;99.90;;;;;;5045500;28;20038;-83
2023/07/11 02:53:20;;;;;;;0.20;0.20;;;18.30;99.90;;;;;;5041645;28;20041;-83
2023/07/11 02:55:46;;;;;;;0.20;0.20;;;18.20;99.90;;;;;;5049835;28;20045;-84
2023/07/11 02:58:12;;;;;;;0.20;0.20;;;18.20;99.90;;;;;;5062436;28;20081;-83
2023/07/11 03:00:37;;;;;;;0.20;0.20;;;18.20;99.90;;;;;;5047795;28;20138;-83
2023/07/11 03:03:03;;;;;;;0.20;0.20;;;18.20;99.90;;;;;;5039434;28;20700;-83
2023/07/11 03:05:29;;;;;;;0.20;0.20;;;18.20;99.90;;;;;;5046078;28;20037;-83
2023/07/11 03:07:55;;;;;;;0.10;0.10;;;18.20;99.90;;;;;;5047158;28;20048;-84
2023/07/11 03:10:21;;;;;;;0.13;0.13;;;18.10;99.90;;;;;;5046878;28;20037;-83
2023/07/11 03:12:46;;;;;;;0.20;0.20;;;18.10;99.90;;;;;;5033213;28;20068;-84
2023/07/11 03:15:12;;;;;;;0.10;0.10;;;18.10;99.90;;;;;;5044692;28;20500;-85
2023/07/11 03:17:38;;;;;;;0.20;0.20;;;18.20;99.90;;;;;;5044319;28;20042;-84
2023/07/11 03:20:04;;;;;;;0.20;0.20;;;18.10;99.90;;;;;;5048201;28;20428;-83
2023/07/11 03:22:29;;;;;;;0.20;0.20;;;18.10;99.90;;;;;;5052614;28;20055;-84
2023/07/11 03:24:55;;;;;;;0.20;0.20;;;18.10;99.90;;;;;;5055754;28;20049;-84
2023/07/11 03:27:21;;;;;;;0.10;0.10;;;18.10;99.90;;;;;;5048573;28;20102;-83
2023/07/11 03:29:46;;;;;;;0.20;0.20;;;18.10;99.90;;;;;;5044902;28;20083;-84
2023/07/11 03:32:12;;;;;;;0.20;0.20;;;18.10;99.90;;;;;;5050787;28;20499;-84
2023/07/11 03:34:38;;;;;;;0.20;0.20;;;18.00;99.90;;;;;;5041477;28;20103;-84
2023/07/11 03:37:04;;;;;;;0.20;0.20;;;18.00;99.90;;;;;;5030145;28;20737;-84
2023/07/11 03:39:30;;;;;;;0.20;0.20;;;18.00;99.90;;;;;;5048440;28;20098;-84
2023/07/11 03:41:55;;;;;;;0.20;0.20;;;18.00;99.90;;;;;;5046682;28;20041;-83
2023/07/11 03:44:21;;;;;;;0.20;0.20;;;18.00;99.90;;;;;;5028323;28;20055;-83
2023/07/11 03:46:47;;;;;;;0.20;0.20;;;18.00;99.90;;;;;;5028167;28;20166;-84
2023/07/11 03:49:12;;;;;;;0.20;0.20;;;18.00;99.90;;;;;;5028431;28;20049;-83
2023/07/11 03:51:38;;;;;;;0.20;0.20;;;18.00;99.90;;;;;;5027255;28;20122;-84
2023/07/11 03:54:04;;;;;;;0.20;0.20;;;18.00;99.90;;;;;;5046728;28;20048;-84
2023/07/11 03:56:29;;;;;;;0.10;0.10;;;18.00;99.90;;;;;;5028711;28;20076;-84
2023/07/11 03:58:56;;;;;;;0.20;0.20;;;18.00;99.90;;;;;;5046047;28;20044;-84
2023/07/11 04:01:21;;;;;;;0.10;0.10;;;18.00;99.90;;;;;;5031204;28;20045;-83
2023/07/11 04:03:47;;;;;;;0.20;0.20;;;18.00;99.90;;;;;;5045988;28;20043;-84
2023/07/11 04:06:13;;;;;;;0.10;0.10;;;18.00;99.90;;;;;;5047814;28;20037;-84
2023/07/11 04:08:39;;;;;;;0.10;0.10;;;18.00;99.90;;;;;;5048098;28;20632;-84
2023/07/11 04:11:05;;;;;;;0.10;0.10;;;18.00;99.90;;;;;;5046826;28;20112;-84
2023/07/11 04:13:31;;;;;;;0.10;0.10;;;18.00;99.90;;;;;;5022615;28;20052;-83
2023/07/11 04:15:57;;;;;;;0.15;0.15;;;18.00;99.90;;;;;;5045319;28;20036;-83
2023/07/11 04:18:23;;;;;;;0.20;0.20;;;18.00;99.90;;;;;;5023201;28;20052;-83
2023/07/11 04:20:49;;;;;;;0.20;0.20;;;18.00;99.90;;;;;;5029581;28;20036;-84
2023/07/11 04:23:15;;;;;;;0.17;0.17;;;18.00;99.90;;;;;;5046718;28;20049;-83
2023/07/11 04:25:41;;;;;;;0.20;0.20;;;18.00;99.90;;;;;;5039861;28;20078;-83
2023/07/11 04:28:07;;;;;;;0.20;0.20;;;18.00;99.90;;;;;;5028449;28;20055;-84
2023/07/11 04:30:32;;;;;;;0.20;0.20;;;18.10;99.90;;;;;;5027842;28;20040;-84
2023/07/11 04:32:58;;;;;;;0.20;0.20;;;18.10;99.90;;;;;;5042656;28;20063;-85
2023/07/11 04:35:24;;;;;;;0.20;0.20;;;18.10;99.90;;;;;;5048861;28;20037;-84
2023/07/11 04:37:50;;;;;;;0.20;0.20;;;18.10;99.90;;;;;;5048037;28;20071;-84
2023/07/11 04:40:17;;;;;;;0.10;0.10;;;18.10;99.90;;;;;;5039892;28;20388;-84
2023/07/11 04:42:43;;;;;;;0.20;0.20;;;18.10;99.90;;;;;;5044698;28;20159;-84
2023/07/11 04:45:09;;;;;;;0.20;0.20;;;18.20;99.90;;;;;;5045588;28;20036;-84
2023/07/11 04:47:35;;;;;;;0.20;0.20;;;18.10;99.90;;;;;;5048490;28;20037;-84
2023/07/11 04:50:02;;;;;;;0.20;0.20;;;18.10;99.90;;;;;;5045384;28;20091;-84
2023/07/11 04:52:29;;;;;;;0.10;0.10;;;18.20;99.90;;;;;;5046596;28;20036;-84
2023/07/11 04:54:54;;;;;;;0.20;0.20;;;18.10;99.90;;;;;;5045361;28;20047;-84
2023/07/11 04:57:21;;;;;;;0.20;0.20;;;18.20;99.90;;;;;;5037347;28;20053;-84
2023/07/11 04:59:48;;;;;;;0.20;0.20;;;18.20;99.90;;;;;;5041444;28;20089;-84
2023/07/11 05:02:13;;;;;;;0.10;0.10;;;18.20;99.90;;;;;;5042756;28;20049;-84
2023/07/11 05:04:40;;;;;;;0.20;0.20;;;18.20;99.90;;;;;;5038124;28;20099;-83
2023/07/11 05:07:06;;;;;;;0.10;0.10;;;18.20;99.90;;;;;;5040140;28;20041;-83
2023/07/11 05:09:32;;;;;;;0.20;0.20;;;18.20;99.90;;;;;;5049625;28;20049;-83
2023/07/11 05:11:57;;;;;;;0.20;0.20;;;18.20;99.90;;;;;;5052126;28;20044;-85
2023/07/11 05:14:24;;;;;;;0.10;0.10;;;18.10;99.90;;;;;;5047134;28;20079;-84
2023/07/11 05:16:49;;;;;;;0.20;0.20;;;18.20;99.90;;;;;;5048627;28;20440;-83
2023/07/11 05:19:16;;;;;;;0.15;0.15;;;18.10;99.90;;;;;;5047945;28;20040;-83
2023/07/11 05:21:41;;;;;;;0.10;0.10;;;18.10;99.90;;;;;;5049327;28;20174;-83
2023/07/11 05:24:08;;;;;;;0.10;0.10;;;18.10;99.90;;;;;;5047718;28;20136;-82
2023/07/11 05:26:34;;;;;;;0.20;0.20;;;18.10;99.90;;;;;;5044812;28;20045;-83
2023/07/11 05:29:06;;;;;;;0.20;0.20;;;18.20;99.90;;;;;;5043375;28;20045;-82
2023/07/11 05:31:32;;;;;;;0.10;0.10;;;18.20;99.90;;;;;;5052263;28;20409;-83
2023/07/11 05:33:57;;;;;;;0.20;0.20;;;18.30;99.90;;;;;;5051858;28;20041;-82
2023/07/11 05:36:33;;;;;;;0.10;0.10;;;18.40;99.90;;;;;;5053904;28;20045;-83
2023/07/11 05:39:05;;;;;;;0.20;0.20;;;18.40;99.90;;;;;;5034482;28;20127;-83
2023/07/11 05:41:35;;;;;;;0.20;0.20;;;18.50;99.90;;;;;;5052316;28;20041;-83
2023/07/11 05:44:01;;;;;;;0.20;0.20;;;18.50;99.90;;;;;;5034750;28;20083;-83
2023/07/11 05:46:27;;;;;;;0.20;0.20;;;18.60;99.90;;;;;;5025559;28;20440;-84
2023/07/11 05:48:54;;;;;;;0.17;0.17;;;18.60;99.90;;;;;;5041218;28;20049;-83
2023/07/11 05:51:21;;;;;;;0.10;0.10;;;18.70;99.90;;;;;;5035972;28;20045;-83
2023/07/11 05:53:48;;;;;;;0.10;0.10;;;18.70;99.90;;;;;;5073417;28;20083;-83
2023/07/11 05:56:15;;;;;;;0.20;0.20;;;18.80;99.90;;;;;;5073913;28;20112;-83
2023/07/11 05:58:44;;;;;;;0.20;0.20;;;18.80;99.90;;;;;;5045382;28;20370;-83
2023/07/11 06:01:15;;;;;;;0.20;0.20;;;18.90;99.90;;;;;;5030295;28;20300;-82
2023/07/11 06:03:40;;;;;;;;;;;19.00;99.90;;;;;;5045973;28;20048;-83
2023/07/11 06:06:09;;;;;;;0.20;0.20;;;19.00;99.90;;;;;;5049543;28;19924;-82
2023/07/11 06:08:35;;;;;;;0.20;0.20;;;19.00;99.90;;;;;;5033999;28;20122;-83
2023/07/11 06:11:03;;;;;;;0.10;0.10;;;19.10;99.90;;;;;;5034576;28;20128;-83
2023/07/11 06:13:30;;;;;;;0.20;0.20;;;19.10;99.90;;;;;;5033103;28;20045;-83
2023/07/11 06:16:00;;;;;;;0.20;0.20;;;19.10;99.90;;;;;;5050822;28;20041;-83
2023/07/11 06:18:26;;;;;;;0.20;0.20;;;19.20;99.90;;;;;;5032042;28;20071;-83
2023/07/11 06:20:52;;;;;;;0.20;0.20;;;19.20;99.90;;;;;;5033922;28;20501;-83
2023/07/11 06:23:19;;;;;;;0.20;0.20;;;19.20;99.90;;;;;;5033376;28;20492;-83
2023/07/11 06:25:46;;;;;;;0.10;0.10;;;19.20;99.90;;;;;;5034630;28;20056;-83
2023/07/11 06:28:12;;;;;;;0.20;0.20;;;19.20;99.90;;;;;;5039832;28;20045;-83
2023/07/11 06:30:41;;;;;;;0.15;0.15;;;19.30;99.90;;;;;;5033381;28;20451;-84
2023/07/11 06:33:09;;;;;;;0.20;0.20;;;19.30;99.90;;;;;;5051757;28;20191;-83
2023/07/11 06:35:36;;;;;;;0.20;0.20;;;19.40;99.90;;;;;;5051707;28;20121;-82
2023/07/11 06:38:03;;;;;;;0.10;0.10;;;19.50;99.90;;;;;;5033484;28;20484;-83
2023/07/11 06:40:30;;;;;;;0.10;0.10;;;19.60;99.90;;;;;;5033358;28;20048;-83
2023/07/11 06:42:56;;;;;;;0.20;0.20;;;19.70;99.90;;;;;;5050129;28;20091;-83
2023/07/11 06:45:22;;;;;;;0.15;0.15;;;19.70;99.90;;;;;;5032619;28;20100;-83
2023/07/11 06:47:48;;;;;;;0.20;0.20;;;19.80;99.90;;;;;;5025650;28;20051;-83
2023/07/11 06:50:13;;;;;;;0.20;0.20;;;19.90;99.90;;;;;;5049394;28;20116;-83
2023/07/11 06:52:39;;;;;;;0.17;0.17;;;20.00;99.90;;;;;;5033573;28;20049;-84
2023/07/11 06:55:06;;;;;;;0.13;0.13;;;20.10;99.90;;;;;;5032254;28;20092;-84
2023/07/11 06:57:32;;;;;;;0.20;0.20;;;20.10;99.90;;;;;;5032255;28;20052;-81
2023/07/11 06:59:57;;;;;;;0.10;0.10;;;20.30;99.90;;;;;;5050650;28;20098;-83
2023/07/11 07:02:23;;;;;;;0.20;0.20;;;20.40;99.90;;;;;;5037935;28;20032;-80
2023/07/11 07:04:49;;;;;;;0.20;0.20;;;20.50;99.90;;;;;;5046612;28;20036;-83
2023/07/11 07:07:14;;;;;;;0.20;0.20;;;20.50;99.90;;;;;;5033393;28;20055;-81
2023/07/11 07:09:40;;;;;;;0.20;0.20;;;20.60;99.90;;;;;;5048699;28;20144;-83
2023/07/11 07:12:06;;;;;;;0.20;0.20;;;20.70;99.90;;;;;;5030739;28;20684;-83
2023/07/11 07:14:32;;;;;;;0.20;0.20;;;20.80;99.90;;;;;;5031011;28;20037;-83
2023/07/11 07:16:58;;;;;;;0.22;0.22;;;20.90;99.90;;;;;;5048823;28;20045;-84
2023/07/11 07:19:23;;;;;;;0.10;0.10;;;21.00;99.90;;;;;;5032328;28;20049;-83
2023/07/11 07:21:49;;;;;;;0.20;0.20;;;21.00;99.90;;;;;;5051459;28;20087;-83
2023/07/11 07:24:14;;;;;;;0.20;0.20;;;21.10;99.90;;;;;;5049767;28;20085;-83
2023/07/11 07:26:41;;;;;;;0.10;0.10;;;21.20;99.90;;;;;;5050204;28;20045;-85
2023/07/11 07:29:07;;;;;;;0.13;0.13;;;21.30;99.90;;;;;;5027682;28;20041;-83
2023/07/11 07:31:33;;;;;;;0.10;0.10;;;21.40;99.90;;;;;;5050544;28;20053;-84
2023/07/11 07:33:59;;;;;;;0.20;0.20;;;21.50;99.90;;;;;;5051142;28;20099;-82
2023/07/11 07:36:24;;;;;;;0.20;0.20;;;21.60;99.90;;;;;;5032801;28;20474;-83
2023/07/11 07:38:50;;;;;;;0.20;0.20;;;21.70;99.90;;;;;;5046339;28;20136;-84
2023/07/11 07:41:16;;;;;;;0.20;0.20;;;21.80;99.90;;;;;;5052434;28;20083;-84
2023/07/11 07:43:44;;;;;;;0.20;0.20;;;21.90;99.90;;;;;;5032061;28;20063;-83
2023/07/11 07:46:15;;;;;;;0.20;0.20;;;22.00;99.90;;;;;;5041529;28;20129;-83
2023/07/11 07:48:43;;;;;;;0.20;0.20;;;22.10;99.90;;;;;;5051934;28;20270;-81
2023/07/11 07:51:13;;;;;;;0.20;0.20;;;22.20;99.90;;;;;;5048306;28;20617;-83
2023/07/11 07:53:39;;;;;;;0.20;0.20;;;22.30;99.90;;;;;;5049309;28;20102;-83
2023/07/11 07:56:14;;;;;;;0.20;0.20;;;22.40;99.90;;;;;;5031465;28;20497;-81
2023/07/11 07:58:40;;;;;;;0.20;0.20;;;22.40;99.90;;;;;;5030829;28;20041;-81
2023/07/11 08:01:06;;;;;;;0.20;0.20;;;22.50;99.90;;;;;;5029983;28;20043;-82
2023/07/11 08:03:38;;;;;;;0.20;0.20;;;22.60;99.90;;;;;;5042316;28;20087;-84
2023/07/11 08:06:05;;;;;;;0.20;0.20;;;22.60;99.90;;;;;;5032905;28;20451;-83
2023/07/11 08:08:31;;;;;;;0.20;0.20;;;22.70;99.90;;;;;;5031158;28;20064;-82
2023/07/11 08:11:04;;;;;;;0.20;0.20;;;22.70;99.90;;;;;;5045444;28;20111;-81
2023/07/11 08:13:30;;;;;;;0.20;0.20;;;22.80;99.90;;;;;;5027093;28;20070;-83
2023/07/11 08:15:56;;;;;;;0.20;0.20;;;22.90;99.90;;;;;;5052233;28;20048;-82
2023/07/11 08:18:22;;;;;;;0.20;0.20;;;23.00;99.90;;;;;;5037497;28;20041;-81
2023/07/11 08:20:48;;;;;;;0.20;0.20;;;23.00;99.90;;;;;;5026631;28;20087;-82
2023/07/11 08:23:14;;;;;;;0.20;0.20;;;23.10;99.90;;;;;;5029270;28;20083;-81
2023/07/11 08:25:41;;;;;;;0.25;0.25;;;23.20;99.90;;;;;;5027445;28;20476;-83
2023/07/11 08:28:07;;;;;;;0.20;0.20;;;23.20;99.90;;;;;;5046502;28;20033;-82
2023/07/11 08:30:37;;;;;;;0.20;0.20;;;23.20;99.90;;;;;;5050822;28;20198;-82
2023/07/11 08:33:02;;;;;;;0.20;0.20;;;23.30;99.90;;;;;;5048137;28;20056;-82
2023/07/11 08:35:28;;;;;;;0.20;0.20;;;23.30;99.90;;;;;;5049624;28;20095;-83
2023/07/11 08:37:54;;;;;;;0.20;0.20;;;23.40;99.90;;;;;;5045286;28;20400;-81
2023/07/11 08:40:25;;;;;;;0.20;0.20;;;23.40;99.90;;;;;;5048425;28;20073;-82
2023/07/11 08:42:51;;;;;;;0.20;0.20;;;23.40;99.90;;;;;;5027787;28;20151;-82
2023/07/11 08:45:27;;;;;;;0.20;0.20;;;23.40;99.90;;;;;;5029078;28;20072;-83
2023/07/11 08:48:15;;;;;;;0.20;0.20;;;23.40;99.90;;;;;;5028556;28;20071;-84
2023/07/11 08:50:49;;;;;;;0.20;0.20;;;23.40;99.90;;;;;;5044543;28;20072;-81
2023/07/11 08:53:21;;;;;;;0.20;0.20;;;23.40;99.90;;;;;;5036746;28;20055;-82
2023/07/11 08:55:52;;;;;;;0.20;0.20;;;23.40;99.90;;;;;;5036133;28;20458;-82
2023/07/11 08:58:30;;;;;;;0.20;0.20;;;23.40;99.90;;;;;;5045047;28;20511;-85
2023/07/11 09:00:57;;;;;;;0.20;0.20;;;23.50;99.90;;;;;;5028419;28;20117;-80
2023/07/11 09:03:43;;;;;;;0.20;0.20;;;23.60;99.90;;;;;;5024594;28;20119;-82
2023/07/11 09:06:17;;;;;;;0.20;0.20;;;23.70;99.90;;;;;;5025734;28;20053;-82
2023/07/11 09:08:45;;;;;;;0.20;0.20;;;23.80;99.90;;;;;;5027092;28;20037;-85
2023/07/11 09:11:22;;;;;;;0.20;0.20;;;23.90;98.80;;;;;;5048908;28;20049;-83
2023/07/11 09:13:56;;;;;;;0.20;0.20;;;23.90;98.90;;;;;;5028505;28;20045;-83
2023/07/11 09:16:34;;;;;;;0.20;0.20;;;23.90;99.00;;;;;;5029339;28;20040;-82
2023/07/11 09:19:18;;;;;;;0.20;0.20;;;23.90;99.00;;;;;;5031218;28;20076;-83
2023/07/11 09:21:44;;;;;;;0.20;0.20;;;24.00;99.10;;;;;;5027423;28;20041;-82
2023/07/11 09:24:30;;;;;;;0.30;0.30;;;24.20;98.80;;;;;;5046830;28;20056;-83
2023/07/11 09:27:18;;;;;;;0.20;0.20;;;24.30;97.40;;;;;;5028254;28;20045;-83
2023/07/11 09:29:46;;;;;;;0.30;0.30;;;24.40;97.40;;;;;;5004825;28;20401;-84
2023/07/11 09:32:13;;;;;;;0.20;0.20;;;24.50;97.40;;;;;;5035061;28;20064;-83
2023/07/11 09:34:42;;;;;;;0.25;0.25;;;24.50;97.20;;;;;;5049437;28;20572;-83
2023/07/11 09:37:25;;;;;;;0.20;0.20;;;24.50;97.00;;;;;;5047008;28;20045;-81
2023/07/11 09:40:07;;;;;;;0.20;0.20;;;24.60;96.90;;;;;;5047758;28;20046;-84
2023/07/11 09:42:47;;;;;;;0.20;0.20;;;24.70;97.10;;;;;;5042664;28;20378;-82
2023/07/11 09:45:16;;;;;;;0.20;0.20;;;24.80;97.00;;;;;;5046751;28;20483;-82
2023/07/11 09:47:47;;;;;;;0.20;0.20;;;24.90;96.70;;;;;;5042423;28;20041;-83
2023/07/11 09:50:34;;;;;;;;;;;25.00;96.90;;;;;;5044648;28;20128;-84
2023/07/11 09:53:01;;;;;;;0.20;0.20;;;25.10;96.00;;;;;;5038593;28;20030;-82
2023/07/11 09:55:34;;;;;;;0.20;0.20;;;25.30;95.90;;;;;;5046497;28;20057;-83
2023/07/11 09:58:01;;;;;;;0.20;0.20;;;25.30;95.90;;;;;;5041236;28;20079;-82
2023/07/11 10:00:28;;;;;;;0.20;0.20;;;25.50;96.00;;;;;;5042605;28;20377;-83
2023/07/11 10:02:59;;;;;;;0.20;0.20;;;25.50;95.60;;;;;;5049316;28;20416;-83
2023/07/11 10:05:26;;;;;;;0.20;0.20;;;25.60;95.70;;;;;;5052322;28;20392;-83
2023/07/11 10:08:00;;;;;;;0.20;0.20;;;25.70;95.40;;;;;;5053147;28;20049;-82
2023/07/11 10:10:26;;;;;;;0.20;0.20;;;25.80;95.00;;;;;;5051072;28;20040;-83
2023/07/11 10:12:51;;;;;;;0.20;0.20;;;25.90;95.20;;;;;;5046360;28;20086;-82
2023/07/11 10:15:18;;;;;;;0.25;0.25;;;26.00;94.80;;;;;;5040269;28;20067;-83
2023/07/11 10:17:45;;;;;;;0.20;0.20;;;26.00;94.70;;;;;;5042235;28;20044;-82
2023/07/11 10:20:20;;;;;;;0.20;0.20;;;26.10;94.00;;;;;;5047093;28;20575;-84
2023/07/11 10:23:00;;;;;;;0.20;0.20;;;26.10;93.20;;;;;;5044697;28;20131;-83
2023/07/11 10:25:28;;;;;;;0.17;0.17;;;26.20;93.70;;;;;;5047109;28;20041;-82
2023/07/11 10:28:13;;;;;;;0.20;0.20;;;26.20;94.00;;;;;;5045256;28;20557;-84
2023/07/11 10:30:41;;;;;;;0.20;0.20;;;26.30;94.10;;;;;;5050572;28;20041;-82
2023/07/11 10:33:20;;;;;;;0.20;0.20;;;26.20;93.50;;;;;;5062113;28;20421;-83
2023/07/11 10:35:53;;;;;;;0.20;0.20;;;26.20;93.00;;;;;;5046622;28;20187;-82
2023/07/11 10:38:23;;;;;;;0.20;0.20;;;26.30;93.00;;;;;;5047405;28;20041;-84
2023/07/11 10:40:51;;;;;;;0.30;0.30;;;26.30;92.80;;;;;;5049457;28;20405;-81
2023/07/11 10:43:27;;;;;;;0.30;0.30;;;26.30;92.80;;;;;;5057034;28;20094;-82
2023/07/11 10:46:05;;;;;;;0.20;0.20;;;26.30;92.50;;;;;;5046524;28;20136;-83
2023/07/11 10:48:34;;;;;;;0.20;0.20;;;26.30;92.70;;;;;;5049419;28;20506;-83
2023/07/11 10:51:04;;;;;;;0.20;0.20;;;26.40;92.90;;;;;;5052143;28;20094;-82
2023/07/11 10:53:50;;;;;;;0.22;0.22;;;26.50;92.50;;;;;;5050403;28;20095;-82
2023/07/11 10:56:19;;;;;;;0.20;0.20;;;26.50;92.00;;;;;;5044634;28;20044;-82
2023/07/11 10:58:46;;;;;;;0.20;0.20;;;26.60;92.00;;;;;;5048022;28;20036;-82
2023/07/11 11:01:29;;;;;;;0.20;0.20;;;26.60;92.30;;;;;;5046155;28;20070;-80
2023/07/11 11:04:32;;;;;;;0.20;0.20;;;26.70;92.20;;;;;;5048447;28;20036;-82
2023/07/11 11:07:19;;;;;;;0.20;0.20;;;26.70;92.40;;;;;;5049570;28;20044;-81
2023/07/11 11:10:26;;;;;;;0.20;0.20;;;26.70;92.00;;;;;;5047408;28;20052;-82
2023/07/11 11:13:16;;;;;;;0.20;0.20;;;26.80;91.90;;;;;;5038952;28;20075;-82
2023/07/11 11:16:06;;;;;;;;;;;26.80;91.80;;;;;;5046685;28;20043;-83
2023/07/11 11:18:44;;;;;;;0.20;0.20;;;26.90;92.40;;;;;;5039921;28;19921;-83
2023/07/11 11:21:19;;;;;;;0.20;0.20;;;27.00;92.20;;;;;;5040261;28;20056;-83
2023/07/11 11:24:00;;;;;;;0.20;0.20;;;27.00;92.20;;;;;;5042815;28;20049;-82
2023/07/11 11:26:44;;;;;;;0.20;0.20;;;27.10;92.00;;;;;;5047801;28;20049;-83
2023/07/11 11:29:34;;;;;;;0.20;0.20;;;27.10;92.00;;;;;;5043727;28;20365;-83
2023/07/11 11:32:08;;;;;;;0.20;0.20;;;27.20;91.80;;;;;;5043131;28;20485;-83
2023/07/11 11:34:34;;;;;;;0.20;0.20;;;27.20;91.60;;;;;;5050056;28;20045;-81
2023/07/11 11:37:15;;;;;;;0.20;0.20;;;27.30;92.00;;;;;;5051162;28;20075;-82
2023/07/11 11:40:02;;;;;;;0.20;0.20;;;27.40;91.80;;;;;;5045111;28;20037;-82
2023/07/11 11:42:30;;;;;;;0.20;0.20;;;27.50;92.00;;;;;;5046601;28;20059;-82
2023/07/11 11:44:58;;;;;;;0.20;0.20;;;27.70;92.00;;;;;;5048544;28;20049;-82
2023/07/11 11:47:27;;;;;;;0.30;0.30;;;27.80;92.00;;;;;;5048696;28;20053;-82
2023/07/11 11:49:54;;;;;;;0.20;0.20;;;28.00;92.10;;;;;;5048899;28;20370;-82
2023/07/11 11:52:22;;;;;;;0.20;0.20;;;28.10;91.80;;;;;;5049334;28;20504;-80
2023/07/11 11:54:49;;;;;;;0.20;0.20;;;28.20;91.20;;;;;;5053117;28;20036;-82
2023/07/11 11:57:20;;;;;;;0.20;0.20;;;28.20;90.70;;;;;;5052686;28;20556;-82
2023/07/11 11:59:46;;;;;;;0.20;0.20;;;28.20;90.30;;;;;;5043554;28;20044;-83
2023/07/11 12:02:17;;;;;;;0.20;0.20;;;28.20;90.00;;;;;;5048359;28;20485;-80
2023/07/11 12:04:54;;;;;;;0.20;0.20;;;28.20;88.80;;;;;;5049360;28;20132;-82
2023/07/11 12:07:29;;;;;;;0.20;0.20;;;28.20;87.30;;;;;;5039048;28;20042;-82
2023/07/11 12:09:56;;;;;;;0.20;0.20;;;28.20;86.70;;;;;;5036791;28;20071;-84
2023/07/11 12:12:30;;;;;;;0.20;0.20;;;28.30;87.70;;;;;;5038927;28;21885;-84
2023/07/11 12:14:59;;;;;;;0.55;0.20;;;28.30;86.50;;;;;;5039374;28;20175;-83
2023/07/11 12:17:34;;;;;;;0.20;0.20;;;28.40;87.30;;;;;;5052168;28;20041;-82
2023/07/11 12:19:59;;;;;;;0.20;0.20;;;28.60;88.40;;;;;;5047697;28;20055;-82
2023/07/11 12:22:26;;;;;;;0.20;0.20;;;28.70;89.70;;;;;;5043866;28;20033;-82
2023/07/11 12:25:02;;;;;;;0.20;0.20;;;28.90;89.60;;;;;;5045474;28;20067;-82
2023/07/11 12:27:28;;;;;;;0.20;0.20;;;29.00;89.50;;;;;;5041208;28;20058;-82
2023/07/11 12:29:55;;;;;;;0.22;0.22;;;29.10;88.50;;;;;;5048143;28;20048;-82
2023/07/11 12:32:33;;;;;;;0.20;0.20;;;29.10;89.80;;;;;;5053887;28;20049;-83
2023/07/11 12:35:04;;;;;;;0.20;0.20;;;29.30;89.00;;;;;;5047428;28;20565;-83
2023/07/11 12:38:01;;;;;;;0.20;0.20;;;29.40;88.50;;;;;;5045954;28;20060;-82
2023/07/11 12:40:49;;;;;;;0.20;0.20;;;29.40;86.10;;;;;;5048134;28;20117;-82
2023/07/11 12:43:31;;;;;;;0.20;0.20;;;29.30;87.20;;;;;;5043655;28;20037;-83
2023/07/11 12:46:02;;;;;;;0.20;0.20;;;29.30;86.90;;;;;;5045092;28;20113;-82
2023/07/11 12:48:38;;;;;;;0.20;0.20;;;29.20;86.90;;;;;;5046930;28;20041;-84
2023/07/11 12:51:20;;;;;;;0.20;0.20;;;29.10;86.80;;;;;;5046818;28;20120;-83
2023/07/11 12:53:46;;;;;;;0.20;0.20;;;29.10;85.90;;;;;;5039080;28;20067;-82
2023/07/11 12:56:13;;;;;;;0.20;0.20;;;29.00;87.00;;;;;;5048440;28;20127;-82
2023/07/11 12:58:40;;;;;;;0.20;0.20;;;29.00;87.70;;;;;;5043788;28;20072;-83